Time;durP1;ratioP1;P1;durP2;ratioP2;P2;SDS_P1;SDS_P2;PMS_P1;PMS_P2;Temp;Humidity;BMP_temperature;BMP_pressure;BME280_temperature;BME280_humidity;BME280_pressure;Samples;Min_cycle;Max_cycle;Signal;HPM_P1;HPM_P2
2023/03/30 00:00:48;;;;;;;4.95;2.25;;;12.30;99.90;;;;;;5018839;28;20041;-67
2023/03/30 00:03:18;;;;;;;5.78;2.30;;;12.30;99.90;;;;;;5018670;28;20029;-67
2023/03/30 00:05:43;;;;;;;4.97;1.80;;;12.30;99.90;;;;;;5018715;28;20022;-67
2023/03/30 00:08:09;;;;;;;7.43;1.80;;;12.30;99.90;;;;;;5019339;28;20025;-67
2023/03/30 00:10:37;;;;;;;6.05;1.65;;;12.20;99.90;;;;;;5018774;28;20037;-67
2023/03/30 00:13:02;;;;;;;6.03;2.42;;;12.20;99.90;;;;;;5019712;28;20018;-67
2023/03/30 00:15:28;;;;;;;7.25;1.65;;;12.20;99.90;;;;;;5018451;28;20084;-67
2023/03/30 00:17:53;;;;;;;4.50;1.65;;;12.20;99.90;;;;;;5018443;28;20022;-67
2023/03/30 00:20:20;;;;;;;3.75;1.90;;;12.30;99.90;;;;;;5018339;28;20032;-67
2023/03/30 00:22:46;;;;;;;4.55;1.98;;;12.30;99.90;;;;;;5018582;28;20113;-67
2023/03/30 00:25:14;;;;;;;2.20;1.50;;;12.30;99.90;;;;;;5019275;28;20025;-67
2023/03/30 00:27:40;;;;;;;5.28;1.80;;;12.20;99.90;;;;;;5018205;28;20026;-67
2023/03/30 00:30:09;;;;;;;5.68;2.13;;;12.20;99.90;;;;;;5018093;28;20029;-67
2023/03/30 00:33:09;;;;;;;8.00;1.70;;;12.20;99.90;;;;;;5018061;28;20030;-67
2023/03/30 00:35:35;;;;;;;4.10;1.58;;;12.30;99.90;;;;;;5018091;28;20030;-67
2023/03/30 00:38:02;;;;;;;5.38;1.77;;;12.30;99.90;;;;;;5019027;28;20029;-67
2023/03/30 00:40:29;;;;;;;7.00;1.95;;;12.30;99.90;;;;;;5019024;28;20040;-67
2023/03/30 00:43:00;;;;;;;4.13;1.90;;;12.30;99.90;;;;;;5018871;28;20017;-67
2023/03/30 00:45:29;;;;;;;3.17;1.80;;;12.30;99.90;;;;;;5017933;28;20093;-67
2023/03/30 00:48:07;;;;;;;6.32;2.13;;;12.40;99.90;;;;;;5017614;28;20022;-67
2023/03/30 00:50:36;;;;;;;4.03;1.98;;;12.40;99.90;;;;;;5018276;28;20046;-67
2023/03/30 00:53:08;;;;;;;4.60;2.08;;;12.40;99.90;;;;;;5017761;28;20080;-67
2023/03/30 00:55:37;;;;;;;4.70;1.65;;;12.40;99.90;;;;;;5019293;28;20084;-67
2023/03/30 00:58:03;;;;;;;8.18;2.10;;;12.40;99.90;;;;;;5018581;28;20022;-67
2023/03/30 01:00:29;;;;;;;7.25;3.17;;;12.30;99.90;;;;;;5018563;28;20040;-67
2023/03/30 01:03:03;;;;;;;4.63;1.73;;;12.30;99.90;;;;;;5017687;28;20108;-67
2023/03/30 01:05:29;;;;;;;10.35;2.70;;;12.30;99.90;;;;;;5017631;28;20029;-67
2023/03/30 01:07:56;;;;;;;8.05;2.58;;;12.10;99.90;;;;;;5018438;28;20017;-67
2023/03/30 01:10:23;;;;;;;5.75;1.85;;;12.10;99.90;;;;;;5018250;28;20080;-67
2023/03/30 01:12:49;;;;;;;6.88;2.10;;;12.10;99.90;;;;;;5017688;28;20026;-67
2023/03/30 01:15:15;;;;;;;3.97;2.10;;;12.00;99.90;;;;;;5017691;28;20099;-67
2023/03/30 01:18:07;;;;;;;11.52;2.35;;;12.00;99.90;;;;;;5017246;28;20052;-67
2023/03/30 01:20:52;;;;;;;6.45;2.72;;;11.90;99.90;;;;;;5018434;28;20026;-67
2023/03/30 01:23:36;;;;;;;8.30;2.15;;;11.90;99.90;;;;;;5018129;28;20022;-67
2023/03/30 01:26:34;;;;;;;7.43;2.20;;;12.00;99.90;;;;;;5018334;28;20025;-67
2023/03/30 01:29:13;;;;;;;8.23;2.30;;;11.90;99.90;;;;;;5013651;28;20045;-67
2023/03/30 01:32:00;;;;;;;9.13;2.33;;;11.90;99.90;;;;;;5017046;28;20022;-67
2023/03/30 01:34:46;;;;;;;4.40;1.90;;;11.80;99.90;;;;;;5017014;28;20057;-67
2023/03/30 01:37:24;;;;;;;7.07;2.30;;;11.90;99.90;;;;;;5017839;28;20040;-67
2023/03/30 01:40:15;;;;;;;7.22;2.42;;;11.90;99.90;;;;;;5016816;28;20029;-67
2023/03/30 01:43:08;;;;;;;7.43;2.13;;;11.80;99.90;;;;;;5017084;28;20022;-67
2023/03/30 01:45:39;;;;;;;8.43;2.40;;;11.70;99.90;;;;;;5017030;28;20022;-67
2023/03/30 01:48:14;;;;;;;8.38;2.58;;;11.70;99.90;;;;;;5017766;28;20100;-67
2023/03/30 01:50:52;;;;;;;5.03;2.15;;;11.70;99.90;;;;;;5017712;28;20080;-67
2023/03/30 01:53:43;;;;;;;9.25;2.22;;;11.60;99.90;;;;;;5017881;28;20137;-67
2023/03/30 01:56:26;;;;;;;7.38;2.15;;;11.70;99.90;;;;;;5017649;28;20026;-67
2023/03/30 01:58:56;;;;;;;8.80;2.20;;;11.60;99.90;;;;;;5016312;28;20037;-67
2023/03/30 02:01:24;;;;;;;7.30;2.25;;;11.50;99.90;;;;;;5016817;28;20168;-67
2023/03/30 02:03:54;;;;;;;5.00;2.08;;;11.40;99.90;;;;;;5017491;28;20029;-67
2023/03/30 02:06:48;;;;;;;9.98;4.07;;;11.40;99.90;;;;;;5017275;28;20028;-67
2023/03/30 02:09:18;;;;;;;8.40;2.60;;;11.40;99.90;;;;;;5013044;28;20044;-67
2023/03/30 02:11:48;;;;;;;9.13;2.00;;;11.40;99.90;;;;;;5017576;28;20034;-67
2023/03/30 02:14:19;;;;;;;6.18;2.70;;;11.50;99.90;;;;;;5016485;28;20026;-67
2023/03/30 02:16:47;;;;;;;4.05;2.20;;;11.40;99.90;;;;;;5016754;28;20030;-67
2023/03/30 02:19:14;;;;;;;7.95;2.72;;;11.50;99.90;;;;;;5017097;28;20030;-67
2023/03/30 02:21:41;;;;;;;5.70;2.60;;;11.60;99.90;;;;;;5017283;28;20022;-67
2023/03/30 02:24:16;;;;;;;6.65;3.33;;;11.70;99.90;;;;;;5017482;28;20022;-67
2023/03/30 02:26:45;;;;;;;8.77;3.00;;;11.70;99.90;;;;;;5017129;28;20021;-67
2023/03/30 02:29:11;;;;;;;7.07;3.33;;;11.80;99.90;;;;;;5016298;28;20045;-67
2023/03/30 02:31:37;;;;;;;6.75;3.40;;;11.80;99.90;;;;;;5017453;28;20064;-67
2023/03/30 02:34:14;;;;;;;4.32;2.75;;;11.80;99.90;;;;;;5016444;28;20050;-67
2023/03/30 02:37:10;;;;;;;12.32;3.28;;;11.80;99.90;;;;;;5016402;28;20141;-67
2023/03/30 02:39:54;;;;;;;9.73;3.92;;;11.70;99.90;;;;;;5017218;28;20053;-67
2023/03/30 02:42:41;;;;;;;11.80;3.65;;;11.60;99.90;;;;;;5016437;28;20026;-67
2023/03/30 02:45:32;;;;;;;10.10;3.83;;;11.30;99.90;;;;;;5016211;28;20018;-67
2023/03/30 02:48:33;;;;;;;6.32;3.80;;;11.00;99.90;;;;;;5016090;28;20022;-67
2023/03/30 02:51:05;;;;;;;8.48;3.60;;;10.70;99.90;;;;;;5016080;28;20116;-67
2023/03/30 02:53:41;;;;;;;11.63;4.55;;;10.70;99.90;;;;;;5016572;28;20030;-67
2023/03/30 02:56:22;;;;;;;10.52;4.38;;;10.60;99.90;;;;;;5017188;28;20112;-67
2023/03/30 03:01:58;;;;;;;13.90;4.72;;;10.50;99.90;;;;;;5014822;28;20061;-67
2023/03/30 03:04:27;;;;;;;;;;;10.70;99.90;;;;;;5016655;28;20037;-67
2023/03/30 03:06:54;;;;;;;6.75;3.65;;;10.90;99.90;;;;;;5017307;28;19906;-67
2023/03/30 03:09:23;;;;;;;8.68;4.25;;;10.90;99.90;;;;;;5015807;28;20053;-68
2023/03/30 03:11:49;;;;;;;12.55;4.75;;;10.80;99.90;;;;;;5020170;28;20021;-67
2023/03/30 03:14:15;;;;;;;12.68;5.07;;;11.00;99.90;;;;;;5019701;28;20026;-67
2023/03/30 03:16:41;;;;;;;14.30;4.40;;;10.90;99.90;;;;;;5020422;28;20036;-67
2023/03/30 03:19:07;;;;;;;10.70;3.45;;;10.90;99.90;;;;;;5019550;28;20217;-67
2023/03/30 03:21:33;;;;;;;8.65;4.22;;;11.00;99.90;;;;;;5019671;28;20022;-67
2023/03/30 03:23:58;;;;;;;9.68;3.90;;;10.90;99.90;;;;;;5019391;28;20024;-67
2023/03/30 03:26:25;;;;;;;12.70;3.80;;;11.00;99.90;;;;;;5019447;28;20065;-67
2023/03/30 03:28:51;;;;;;;8.15;3.55;;;11.10;99.90;;;;;;5019341;28;20030;-67
2023/03/30 03:31:17;;;;;;;6.40;3.60;;;11.20;99.90;;;;;;5019533;28;20097;-67
2023/03/30 03:33:42;;;;;;;9.85;4.22;;;11.30;99.90;;;;;;5019247;28;20025;-67
2023/03/30 03:36:10;;;;;;;7.18;3.28;;;11.40;99.90;;;;;;5019467;28;20033;-68
2023/03/30 03:38:36;;;;;;;9.30;3.83;;;11.40;99.90;;;;;;5019172;28;20026;-67
2023/03/30 03:41:02;;;;;;;14.00;3.17;;;11.40;99.90;;;;;;5019083;28;20037;-67
2023/03/30 03:43:28;;;;;;;5.65;2.63;;;11.30;99.90;;;;;;5019948;28;20018;-67
2023/03/30 03:45:54;;;;;;;5.82;2.22;;;11.40;99.90;;;;;;5019440;28;20067;-67
2023/03/30 03:48:22;;;;;;;4.90;2.10;;;11.60;99.90;;;;;;5019718;28;20029;-67
2023/03/30 03:50:55;;;;;;;6.57;2.67;;;11.60;99.90;;;;;;5018996;28;20120;-67
2023/03/30 03:53:22;;;;;;;10.00;4.18;;;11.70;99.90;;;;;;5019989;28;20054;-67
2023/03/30 03:55:48;;;;;;;14.63;3.30;;;11.70;99.90;;;;;;5018952;28;20033;-67
2023/03/30 03:58:14;;;;;;;13.73;4.03;;;11.60;99.90;;;;;;5019717;28;20026;-67
2023/03/30 04:00:40;;;;;;;12.63;3.10;;;11.40;99.90;;;;;;5018885;28;20029;-68
2023/03/30 04:03:07;;;;;;;9.05;3.78;;;11.50;99.90;;;;;;5018917;28;20022;-67
2023/03/30 04:05:33;;;;;;;13.90;4.38;;;11.60;99.90;;;;;;5018982;28;20022;-67
2023/03/30 04:07:59;;;;;;;11.35;3.70;;;11.50;99.90;;;;;;5019603;28;20029;-67
2023/03/30 04:10:24;;;;;;;10.02;3.70;;;11.60;99.90;;;;;;5018508;28;20060;-67
2023/03/30 04:12:50;;;;;;;12.18;4.68;;;11.60;99.90;;;;;;5018464;28;20026;-67
2023/03/30 04:15:15;;;;;;;9.45;4.07;;;11.60;99.90;;;;;;5018582;28;20061;-67
2023/03/30 04:17:43;;;;;;;11.77;4.30;;;11.50;99.90;;;;;;5019190;28;20029;-67
2023/03/30 04:20:12;;;;;;;12.90;4.78;;;11.50;99.90;;;;;;5018225;28;20030;-68
2023/03/30 04:22:40;;;;;;;12.27;4.40;;;11.40;99.90;;;;;;5017894;28;20030;-68
2023/03/30 04:25:13;;;;;;;13.70;4.45;;;11.50;99.90;;;;;;5019442;28;20064;-67
2023/03/30 04:27:42;;;;;;;19.88;4.47;;;11.50;99.90;;;;;;5019205;28;20133;-67
2023/03/30 04:30:10;;;;;;;15.40;4.30;;;11.50;99.90;;;;;;5018098;28;20080;-67
2023/03/30 04:32:37;;;;;;;13.85;4.55;;;11.50;99.90;;;;;;5018422;28;20030;-67
2023/03/30 04:35:07;;;;;;;13.18;4.53;;;11.50;99.90;;;;;;5018179;28;20057;-67
2023/03/30 04:37:34;;;;;;;14.18;3.90;;;11.60;99.90;;;;;;5018983;28;20022;-67
2023/03/30 04:40:00;;;;;;;13.32;4.68;;;11.60;99.90;;;;;;5018755;28;20092;-67
2023/03/30 04:42:33;;;;;;;10.20;3.55;;;11.70;99.90;;;;;;5018010;28;20080;-67
2023/03/30 04:45:06;;;;;;;14.68;4.10;;;11.60;99.90;;;;;;5018145;28;20025;-67
2023/03/30 04:47:32;;;;;;;6.43;2.95;;;11.70;99.90;;;;;;5018849;28;20033;-67
2023/03/30 04:49:57;;;;;;;14.32;4.03;;;11.80;99.90;;;;;;5018527;28;20026;-67
2023/03/30 04:52:23;;;;;;;12.52;3.28;;;11.80;99.90;;;;;;5017845;28;20041;-68
2023/03/30 04:54:49;;;;;;;9.07;4.45;;;11.80;99.90;;;;;;5017799;28;20022;-68
2023/03/30 04:57:15;;;;;;;11.50;3.90;;;11.90;99.90;;;;;;5017853;28;20060;-68
2023/03/30 04:59:42;;;;;;;5.93;3.28;;;11.90;99.90;;;;;;5017394;28;20026;-68
2023/03/30 05:02:08;;;;;;;10.65;3.17;;;11.90;99.90;;;;;;5018506;28;20168;-68
2023/03/30 05:04:34;;;;;;;8.02;3.33;;;11.70;99.90;;;;;;5018845;28;20026;-67
2023/03/30 05:07:01;;;;;;;5.75;3.08;;;11.40;99.90;;;;;;5018295;28;20029;-67
2023/03/30 05:09:27;;;;;;;13.93;3.30;;;11.40;99.90;;;;;;5017511;28;20049;-67
2023/03/30 05:11:52;;;;;;;24.33;4.40;;;11.30;99.90;;;;;;5017959;28;20029;-67
2023/03/30 05:14:18;;;;;;;9.20;3.10;;;11.30;99.90;;;;;;5018209;28;20101;-67
2023/03/30 05:16:43;;;;;;;9.80;3.95;;;11.40;99.90;;;;;;5017381;28;20112;-67
2023/03/30 05:19:09;;;;;;;10.63;3.40;;;11.50;99.90;;;;;;5017232;28;20038;-68
2023/03/30 05:21:35;;;;;;;20.77;4.20;;;11.60;99.90;;;;;;5017338;28;20018;-68
2023/03/30 05:24:00;;;;;;;6.53;3.15;;;11.60;99.90;;;;;;5017358;28;20029;-68
2023/03/30 05:26:26;;;;;;;10.68;3.70;;;11.60;99.90;;;;;;5018434;28;20026;-68
2023/03/30 05:28:52;;;;;;;8.05;2.65;;;11.70;99.90;;;;;;5018256;28;20022;-68
2023/03/30 05:31:18;;;;;;;9.38;2.97;;;11.70;99.90;;;;;;5017025;28;20029;-68
2023/03/30 05:33:44;;;;;;;12.20;3.90;;;11.50;99.90;;;;;;5017522;28;20037;-67
2023/03/30 05:36:10;;;;;;;15.30;3.78;;;11.60;99.90;;;;;;5017875;28;20029;-67
2023/03/30 05:38:35;;;;;;;12.48;4.20;;;11.60;99.90;;;;;;5016886;28;20053;-67
2023/03/30 05:41:01;;;;;;;8.25;2.97;;;11.50;99.90;;;;;;5017766;28;20025;-67
2023/03/30 05:43:27;;;;;;;13.00;3.67;;;11.30;99.90;;;;;;5016873;28;20022;-68
2023/03/30 05:45:52;;;;;;;7.00;3.22;;;11.40;99.90;;;;;;5017172;28;20025;-68
2023/03/30 05:48:18;;;;;;;10.98;4.43;;;11.50;99.90;;;;;;5016847;28;20022;-68
2023/03/30 05:50:46;;;;;;;16.08;4.35;;;11.50;99.90;;;;;;5017913;28;20030;-67
2023/03/30 05:53:11;;;;;;;16.70;4.85;;;11.60;99.90;;;;;;5017956;28;20104;-67
2023/03/30 05:55:37;;;;;;;12.63;4.28;;;11.60;99.90;;;;;;5016939;28;20068;-67
2023/03/30 05:58:02;;;;;;;19.70;3.83;;;11.60;99.90;;;;;;5017065;28;20026;-67
2023/03/30 06:00:32;;;;;;;16.23;3.80;;;11.60;99.90;;;;;;5016562;28;20038;-67
2023/03/30 06:02:58;;;;;;;13.68;3.83;;;11.60;99.90;;;;;;5017841;28;20026;-67
2023/03/30 06:05:23;;;;;;;10.48;4.10;;;11.60;99.90;;;;;;5017418;28;20152;-67
2023/03/30 06:07:49;;;;;;;16.38;4.05;;;11.60;99.90;;;;;;5016632;28;20060;-67
2023/03/30 06:10:15;;;;;;;14.15;4.13;;;11.60;99.90;;;;;;5016486;28;20045;-67
2023/03/30 06:12:40;;;;;;;19.55;4.53;;;11.60;99.90;;;;;;5016379;28;20021;-68
2023/03/30 06:15:07;;;;;;;11.55;3.92;;;11.60;99.90;;;;;;5016519;28;20029;-68
2023/03/30 06:17:34;;;;;;;16.85;4.43;;;11.50;99.90;;;;;;5017602;28;20089;-68
2023/03/30 06:20:00;;;;;;;16.17;3.67;;;11.50;99.90;;;;;;5016382;28;20022;-68
2023/03/30 06:22:26;;;;;;;6.88;3.30;;;11.60;99.90;;;;;;5016569;28;20022;-68
2023/03/30 06:24:51;;;;;;;10.48;5.18;;;11.60;99.90;;;;;;5016327;28;20026;-68
2023/03/30 06:27:17;;;;;;;9.98;3.83;;;11.60;99.90;;;;;;5016430;28;20116;-68
2023/03/30 06:29:42;;;;;;;11.05;3.63;;;11.70;99.90;;;;;;5017421;28;20045;-68
2023/03/30 06:32:08;;;;;;;10.52;3.95;;;11.70;99.90;;;;;;5016295;28;20034;-67
2023/03/30 06:34:33;;;;;;;13.05;3.63;;;11.50;99.90;;;;;;5016293;28;20053;-67
2023/03/30 06:37:00;;;;;;;12.73;2.75;;;11.60;99.90;;;;;;5016672;28;20113;-67
2023/03/30 06:39:25;;;;;;;7.18;2.53;;;11.70;99.90;;;;;;5017264;28;20029;-67
2023/03/30 06:41:51;;;;;;;10.02;3.47;;;11.80;99.90;;;;;;5017154;28;20018;-67
2023/03/30 06:44:16;;;;;;;10.45;3.22;;;11.80;99.90;;;;;;5017535;28;20022;-67
2023/03/30 06:46:42;;;;;;;11.40;2.70;;;11.80;99.90;;;;;;5020519;28;20029;-68
2023/03/30 06:49:10;;;;;;;11.55;2.90;;;11.90;99.90;;;;;;5020559;28;20034;-68
2023/03/30 06:51:36;;;;;;;11.35;3.60;;;11.90;99.90;;;;;;5020261;28;20022;-67
2023/03/30 06:54:02;;;;;;;9.23;3.50;;;11.80;99.90;;;;;;5020011;28;20041;-67
2023/03/30 06:56:28;;;;;;;19.33;3.25;;;11.70;99.90;;;;;;5020019;28;20034;-67
2023/03/30 06:58:55;;;;;;;16.02;3.08;;;11.80;99.90;;;;;;5020220;28;20037;-67
2023/03/30 07:01:21;;;;;;;11.05;3.60;;;11.90;99.90;;;;;;5019670;28;20084;-67
2023/03/30 07:03:46;;;;;;;10.05;3.38;;;12.00;99.90;;;;;;5019832;28;20022;-67
2023/03/30 07:06:12;;;;;;;8.48;2.97;;;12.10;99.90;;;;;;5019761;28;20026;-67
2023/03/30 07:08:39;;;;;;;11.45;2.78;;;12.10;99.90;;;;;;5019685;28;20030;-67
2023/03/30 07:11:05;;;;;;;9.25;3.03;;;12.30;99.90;;;;;;5019740;28;20072;-67
2023/03/30 07:13:31;;;;;;;8.20;2.65;;;12.20;99.90;;;;;;5020044;28;20108;-67
2023/03/30 07:15:57;;;;;;;12.68;2.90;;;12.20;99.90;;;;;;5019740;28;20026;-67
2023/03/30 07:18:23;;;;;;;15.05;3.17;;;12.10;99.90;;;;;;5020574;28;20029;-68
2023/03/30 07:20:50;;;;;;;8.48;2.80;;;12.20;99.90;;;;;;5020270;28;20026;-68
2023/03/30 07:23:15;;;;;;;11.20;2.53;;;12.30;99.90;;;;;;5020517;28;20076;-68
2023/03/30 07:25:42;;;;;;;6.18;2.22;;;12.30;99.90;;;;;;5019439;28;20021;-67
2023/03/30 07:28:08;;;;;;;8.25;1.70;;;12.40;99.90;;;;;;5019809;28;20026;-67
2023/03/30 07:30:34;;;;;;;12.88;2.33;;;12.50;99.90;;;;;;5019345;28;20029;-67
2023/03/30 07:33:00;;;;;;;7.55;2.10;;;12.60;99.90;;;;;;5019380;28;20026;-67
2023/03/30 07:35:26;;;;;;;5.97;2.38;;;12.70;99.90;;;;;;5019591;28;20061;-68
2023/03/30 07:37:52;;;;;;;9.98;2.17;;;12.80;99.90;;;;;;5019125;28;20029;-68
2023/03/30 07:40:18;;;;;;;6.97;2.60;;;13.00;99.90;;;;;;5019176;28;20060;-68
2023/03/30 07:42:44;;;;;;;6.80;1.60;;;13.00;99.90;;;;;;5019162;28;20057;-69
2023/03/30 07:45:10;;;;;;;12.75;2.45;;;13.10;99.90;;;;;;5020201;28;20113;-68
2023/03/30 07:47:36;;;;;;;6.82;2.92;;;13.10;99.90;;;;;;5019093;28;20049;-68
2023/03/30 07:50:02;;;;;;;14.43;2.20;;;13.20;99.90;;;;;;5019332;28;20030;-69
2023/03/30 07:52:28;;;;;;;8.18;2.10;;;13.20;99.90;;;;;;5019041;28;20056;-68
2023/03/30 07:54:55;;;;;;;7.85;2.30;;;13.20;99.90;;;;;;5018919;28;20112;-68
2023/03/30 07:57:21;;;;;;;8.05;2.70;;;13.20;99.90;;;;;;5019213;28;20025;-68
2023/03/30 07:59:46;;;;;;;5.47;2.00;;;13.20;99.90;;;;;;5018465;28;20029;-68
2023/03/30 08:02:13;;;;;;;13.88;2.00;;;13.30;99.90;;;;;;5019789;28;20026;-68
2023/03/30 08:04:40;;;;;;;6.40;1.95;;;13.40;99.90;;;;;;5019619;28;20041;-67
2023/03/30 08:07:06;;;;;;;4.97;2.15;;;13.40;99.90;;;;;;5018542;28;20025;-68
2023/03/30 08:09:32;;;;;;;7.68;2.03;;;13.40;99.90;;;;;;5018595;28;20045;-68
2023/03/30 08:11:58;;;;;;;8.00;2.22;;;13.30;99.90;;;;;;5019430;28;20245;-69
2023/03/30 08:14:26;;;;;;;5.82;1.88;;;13.40;99.90;;;;;;5018964;28;20076;-69
2023/03/30 08:16:55;;;;;;;8.90;1.63;;;13.50;99.90;;;;;;5019723;28;20116;-68
2023/03/30 08:19:23;;;;;;;5.65;1.88;;;13.50;99.90;;;;;;5018273;28;20030;-68
2023/03/30 08:21:48;;;;;;;7.90;2.70;;;13.50;99.90;;;;;;5019312;28;20022;-69
2023/03/30 08:24:14;;;;;;;4.70;2.58;;;13.50;99.90;;;;;;5019128;28;20022;-68
2023/03/30 08:26:40;;;;;;;8.55;2.30;;;13.50;99.90;;;;;;5018799;28;20033;-68
2023/03/30 08:29:05;;;;;;;9.35;2.53;;;13.60;99.90;;;;;;5018442;28;20026;-69
2023/03/30 08:31:31;;;;;;;11.13;2.80;;;13.60;99.90;;;;;;5018196;28;20026;-67
2023/03/30 08:33:58;;;;;;;7.88;2.85;;;13.60;99.90;;;;;;5018207;28;20026;-67
2023/03/30 08:36:24;;;;;;;5.18;2.15;;;13.50;99.90;;;;;;5019087;28;20058;-68
2023/03/30 08:38:50;;;;;;;6.55;2.40;;;13.60;99.90;;;;;;5018027;28;20022;-68
2023/03/30 08:41:22;;;;;;;12.65;2.60;;;13.60;99.90;;;;;;5018028;28;20077;-68
2023/03/30 08:43:56;;;;;;;8.95;2.35;;;13.70;99.90;;;;;;5018012;28;20018;-68
2023/03/30 08:46:21;;;;;;;4.25;1.67;;;13.80;99.90;;;;;;5017972;28;20022;-68
2023/03/30 08:48:48;;;;;;;6.95;1.85;;;13.90;99.90;;;;;;5018753;28;20025;-68
2023/03/30 08:51:21;;;;;;;6.80;1.90;;;14.10;99.90;;;;;;5019011;28;20018;-68
2023/03/30 08:54:04;;;;;;;9.10;1.90;;;14.10;99.90;;;;;;5018410;28;20105;-68
2023/03/30 08:56:41;;;;;;;6.05;1.60;;;14.20;99.90;;;;;;5018958;28;20061;-69
2023/03/30 08:59:22;;;;;;;7.57;2.10;;;14.30;99.90;;;;;;5018627;28;20041;-68
2023/03/30 09:01:57;;;;;;;3.53;2.00;;;14.40;99.90;;;;;;5017934;28;20034;-69
2023/03/30 09:04:41;;;;;;;10.65;1.98;;;14.50;99.90;;;;;;5017815;28;20121;-69
2023/03/30 09:07:23;;;;;;;6.20;1.83;;;14.60;99.90;;;;;;5017502;28;20022;-69
2023/03/30 09:09:50;;;;;;;3.20;1.73;;;14.50;99.90;;;;;;5018336;28;20052;-69
2023/03/30 09:12:39;;;;;;;6.88;1.92;;;14.60;99.90;;;;;;5017461;28;20033;-67
2023/03/30 09:15:38;;;;;;;8.68;2.53;;;14.70;99.90;;;;;;5017491;28;20117;-68
2023/03/30 09:18:08;;;;;;;5.43;1.63;;;14.70;99.90;;;;;;5017874;28;20037;-68
2023/03/30 09:20:36;;;;;;;5.55;1.65;;;14.70;99.90;;;;;;5017190;28;20033;-70
2023/03/30 09:23:03;;;;;;;3.53;1.80;;;14.80;99.90;;;;;;5018432;28;20025;-69
2023/03/30 09:25:34;;;;;;;2.97;1.45;;;14.90;99.90;;;;;;5017192;28;20089;-68
2023/03/30 09:28:16;;;;;;;4.65;1.52;;;15.00;99.90;;;;;;5018056;28;20021;-68
2023/03/30 09:30:50;;;;;;;4.97;1.77;;;15.00;99.90;;;;;;5018211;28;20030;-70
2023/03/30 09:33:20;;;;;;;7.43;1.83;;;15.00;99.90;;;;;;5017115;28;20030;-68
2023/03/30 09:36:16;;;;;;;5.47;1.55;;;15.10;99.90;;;;;;5018121;28;20085;-68
2023/03/30 09:38:44;;;;;;;5.82;2.15;;;15.20;99.90;;;;;;4991739;28;20034;-69
2023/03/30 09:41:16;;;;;;;2.75;1.40;;;15.20;99.90;;;;;;5017223;28;20049;-69
2023/03/30 09:43:45;;;;;;;4.95;1.25;;;15.30;99.90;;;;;;5017797;28;20018;-68
2023/03/30 09:46:13;;;;;;;5.10;1.70;;;15.30;99.90;;;;;;5017789;28;20045;-69
2023/03/30 09:48:44;;;;;;;4.05;1.60;;;15.30;99.90;;;;;;5017745;28;20029;-68
2023/03/30 09:51:27;;;;;;;5.70;1.92;;;15.30;99.90;;;;;;5017540;28;20030;-68
2023/03/30 09:54:00;;;;;;;4.05;1.80;;;15.30;99.90;;;;;;5016894;28;20029;-68
2023/03/30 09:56:42;;;;;;;5.53;1.60;;;15.30;99.90;;;;;;5017641;28;20030;-68
2023/03/30 09:59:26;;;;;;;6.18;1.67;;;15.40;99.90;;;;;;5016691;28;20026;-69
2023/03/30 10:01:51;;;;;;;6.10;1.38;;;15.40;99.90;;;;;;5016962;28;20044;-69
2023/03/30 10:04:18;;;;;;;3.13;1.65;;;15.40;99.90;;;;;;5017487;28;20100;-68
2023/03/30 10:06:48;;;;;;;6.35;1.60;;;15.40;99.90;;;;;;5017314;28;20022;-69
2023/03/30 10:09:16;;;;;;;5.40;1.38;;;15.40;99.90;;;;;;5016519;28;20029;-68
2023/03/30 10:11:44;;;;;;;9.38;1.75;;;15.40;99.90;;;;;;5016446;28;20026;-68
2023/03/30 10:14:28;;;;;;;5.07;1.73;;;15.40;99.90;;;;;;5016516;28;20026;-68
2023/03/30 10:16:54;;;;;;;2.83;1.23;;;15.50;99.90;;;;;;5016608;28;20026;-69
2023/03/30 10:19:21;;;;;;;4.63;1.48;;;15.40;99.90;;;;;;5016175;28;20037;-70
2023/03/30 10:21:51;;;;;;;5.72;1.85;;;15.50;99.90;;;;;;5016287;28;20064;-69
2023/03/30 10:24:22;;;;;;;8.60;1.75;;;15.50;99.90;;;;;;5016625;28;20022;-69
2023/03/30 10:26:56;;;;;;;8.43;2.03;;;15.50;99.90;;;;;;5017169;28;20022;-69
2023/03/30 10:29:24;;;;;;;4.93;1.55;;;15.50;99.90;;;;;;5017094;28;20061;-69
2023/03/30 10:31:57;;;;;;;2.90;1.60;;;15.50;99.90;;;;;;5016347;28;20030;-69
2023/03/30 10:34:33;;;;;;;8.13;1.70;;;15.60;99.90;;;;;;5016474;28;20026;-69
2023/03/30 10:36:59;;;;;;;9.13;2.05;;;15.60;99.90;;;;;;5017163;28;20113;-69
2023/03/30 10:39:29;;;;;;;7.35;1.60;;;15.60;99.90;;;;;;5017033;28;20064;-69
2023/03/30 10:41:56;;;;;;;5.20;1.65;;;15.70;99.90;;;;;;5016791;28;20105;-69
2023/03/30 10:44:35;;;;;;;7.97;1.52;;;15.90;99.90;;;;;;5016194;28;20040;-69
2023/03/30 10:47:25;;;;;;;6.70;1.73;;;16.30;99.90;;;;;;5017004;28;20045;-69
2023/03/30 10:50:40;;;;;;;8.32;1.38;;;16.60;99.90;;;;;;5016137;28;20182;-69
2023/03/30 10:53:47;;;;;;;4.97;1.15;;;16.90;99.90;;;;;;4960388;28;20062;-69
2023/03/30 10:56:41;;;;;;;4.30;1.45;;;17.40;99.90;;;;;;4973231;28;20037;-69
2023/03/30 10:59:27;;;;;;;4.85;1.52;;;17.60;99.90;;;;;;5015938;28;20030;-69
2023/03/30 11:02:15;;;;;;;1.73;0.75;;;17.90;99.90;;;;;;5016505;28;20026;-69
2023/03/30 11:04:48;;;;;;;0.90;0.80;;;18.20;99.90;;;;;;5017164;28;20026;-69
2023/03/30 11:07:22;;;;;;;3.75;0.80;;;18.10;99.90;;;;;;5015910;28;20121;-69
2023/03/30 11:09:54;;;;;;;7.53;1.20;;;17.90;99.90;;;;;;5016143;28;20037;-69
2023/03/30 11:12:22;;;;;;;5.22;1.20;;;17.90;99.90;;;;;;5015947;28;20037;-69
2023/03/30 11:14:57;;;;;;;4.88;1.80;;;18.10;99.90;;;;;;5016012;28;20030;-69
2023/03/30 11:17:53;;;;;;;6.03;1.30;;;18.00;99.90;;;;;;5016766;28;20052;-69
2023/03/30 11:20:26;;;;;;;2.10;1.05;;;18.00;99.90;;;;;;4994243;28;20092;-69
2023/03/30 11:23:08;;;;;;;2.75;0.77;;;18.10;99.90;;;;;;5017291;28;20050;-69
2023/03/30 11:25:44;;;;;;;3.83;0.93;;;18.70;99.90;;;;;;5015883;28;20026;-69
2023/03/30 11:28:42;;;;;;;5.85;2.00;;;19.20;99.90;;;;;;5015895;28;20022;-69
2023/03/30 11:31:24;;;;;;;2.38;1.20;;;19.50;99.90;;;;;;5016528;28;20025;-69
2023/03/30 11:33:57;;;;;;;4.95;1.25;;;20.00;99.90;;;;;;5020229;28;20018;-69
2023/03/30 11:36:44;;;;;;;5.03;1.20;;;19.60;99.90;;;;;;5019348;28;20050;-69
2023/03/30 11:39:15;;;;;;;2.85;0.90;;;18.40;99.90;;;;;;5019229;28;20030;-70
2023/03/30 11:42:02;;;;;;;2.78;1.00;;;16.50;99.90;;;;;;5019391;28;20053;-70
2023/03/30 11:44:28;;;;;;;2.28;0.70;;;15.50;99.90;;;;;;5019713;28;20022;-70
2023/03/30 11:47:12;;;;;;;2.90;0.55;;;14.80;99.90;;;;;;5019333;28;20021;-70
2023/03/30 11:49:57;;;;;;;2.60;0.85;;;14.00;99.90;;;;;;5019780;28;20117;-71
2023/03/30 11:52:28;;;;;;;4.15;0.85;;;13.30;99.90;;;;;;5018905;28;20026;-70
2023/03/30 11:55:22;;;;;;;0.75;0.30;;;13.00;99.90;;;;;;5019839;28;20030;-70
2023/03/30 11:58:06;;;;;;;0.32;0.20;;;12.90;99.90;;;;;;5019833;28;20026;-70
2023/03/30 12:00:46;;;;;;;2.92;0.43;;;12.70;99.90;;;;;;5019922;28;20029;-70
2023/03/30 12:03:33;;;;;;;5.60;0.65;;;12.60;99.90;;;;;;5018699;28;20026;-70
2023/03/30 12:06:28;;;;;;;2.63;0.60;;;12.70;99.90;;;;;;5019206;28;20026;-70
2023/03/30 12:09:15;;;;;;;0.80;0.20;;;12.60;99.90;;;;;;5019633;28;20054;-70
2023/03/30 12:11:45;;;;;;;0.95;0.35;;;12.50;99.90;;;;;;5019686;28;20018;-70
2023/03/30 12:14:30;;;;;;;1.35;0.93;;;12.40;99.90;;;;;;5018693;28;20026;-70
2023/03/30 12:17:02;;;;;;;2.13;0.30;;;12.40;99.90;;;;;;5018878;28;20030;-70
2023/03/30 12:19:51;;;;;;;4.15;0.50;;;12.30;99.90;;;;;;5019221;28;20088;-71
2023/03/30 12:22:29;;;;;;;2.00;0.40;;;12.40;99.90;;;;;;5019289;28;20026;-71
2023/03/30 12:25:13;;;;;;;1.40;0.20;;;12.40;99.90;;;;;;5018475;28;20026;-70
2023/03/30 12:28:21;;;;;;;2.20;0.50;;;12.40;99.90;;;;;;5019482;28;20022;-71
2023/03/30 12:30:53;;;;;;;3.17;0.40;;;12.40;99.90;;;;;;5014335;28;20046;-70
2023/03/30 12:33:27;;;;;;;;;;;12.40;99.90;;;;;;5019488;28;20058;-70
2023/03/30 12:36:00;;;;;;;1.42;0.60;;;12.50;99.90;;;;;;5018197;28;19959;-70
2023/03/30 12:38:45;;;;;;;3.90;0.55;;;12.40;99.90;;;;;;5018278;28;20025;-70
2023/03/30 12:41:16;;;;;;;1.05;0.30;;;12.30;99.90;;;;;;5018025;28;20097;-70
2023/03/30 12:44:13;;;;;;;2.92;0.85;;;12.00;99.90;;;;;;5018538;28;20057;-70
2023/03/30 12:47:08;;;;;;;1.23;0.40;;;11.70;99.90;;;;;;5018103;28;20064;-70
2023/03/30 12:49:46;;;;;;;6.38;0.98;;;11.60;99.90;;;;;;5018819;28;20022;-70
2023/03/30 12:52:26;;;;;;;2.50;0.50;;;11.50;99.90;;;;;;5018536;28;20080;-70
2023/03/30 12:55:25;;;;;;;2.15;1.00;;;11.50;99.90;;;;;;5018706;28;20049;-70
2023/03/30 12:57:58;;;;;;;2.17;0.85;;;11.50;99.90;;;;;;5018492;28;20030;-70
2023/03/30 13:01:01;;;;;;;4.72;0.70;;;11.70;99.90;;;;;;5018264;28;20029;-70
2023/03/30 13:03:51;;;;;;;3.58;0.90;;;11.90;99.90;;;;;;5018575;28;20032;-70
2023/03/30 13:06:47;;;;;;;2.03;0.55;;;12.00;99.90;;;;;;5018516;28;20022;-70
2023/03/30 13:09:21;;;;;;;2.80;0.60;;;12.20;99.90;;;;;;5017537;28;20034;-70
2023/03/30 13:11:52;;;;;;;0.73;0.40;;;12.30;99.90;;;;;;5017444;28;20081;-70
2023/03/30 13:14:41;;;;;;;;;;;12.30;99.90;;;;;;5019126;28;20025;-70